sensor_id;sensor_type;location;lat;lon;timestamp;P1;durP1;ratioP1;P2;durP2;ratioP2
40951;SDS011;26682;51.660;19.338;2023-08-06T00:02:21;31.45;;;23.35;;
40951;SDS011;26682;51.660;19.338;2023-08-06T00:05:03;36.45;;;23.05;;
40951;SDS011;26682;51.660;19.338;2023-08-06T00:07:49;31.88;;;21.58;;
40951;SDS011;26682;51.660;19.338;2023-08-06T00:10:32;28.38;;;20.90;;
40951;SDS011;26682;51.660;19.338;2023-08-06T00:13:14;29.58;;;20.92;;
40951;SDS011;26682;51.660;19.338;2023-08-06T00:16:07;24.30;;;18.75;;
40951;SDS011;26682;51.660;19.338;2023-08-06T00:18:53;27.67;;;20.35;;
40951;SDS011;26682;51.660;19.338;2023-08-06T00:21:35;22.67;;;17.73;;
40951;SDS011;26682;51.660;19.338;2023-08-06T00:24:20;25.92;;;19.17;;
40951;SDS011;26682;51.660;19.338;2023-08-06T00:27:02;26.20;;;19.45;;
40951;SDS011;26682;51.660;19.338;2023-08-06T00:29:45;30.27;;;19.83;;
40951;SDS011;26682;51.660;19.338;2023-08-06T00:32:27;23.85;;;18.52;;
40951;SDS011;26682;51.660;19.338;2023-08-06T00:35:10;22.45;;;18.23;;
40951;SDS011;26682;51.660;19.338;2023-08-06T00:37:52;23.38;;;18.50;;
40951;SDS011;26682;51.660;19.338;2023-08-06T00:40:34;21.38;;;17.75;;
40951;SDS011;26682;51.660;19.338;2023-08-06T00:43:17;20.38;;;17.85;;
40951;SDS011;26682;51.660;19.338;2023-08-06T00:45:59;21.65;;;17.25;;
40951;SDS011;26682;51.660;19.338;2023-08-06T00:48:42;20.25;;;17.02;;
40951;SDS011;26682;51.660;19.338;2023-08-06T00:51:24;20.27;;;17.35;;
40951;SDS011;26682;51.660;19.338;2023-08-06T00:54:08;21.20;;;16.90;;
40951;SDS011;26682;51.660;19.338;2023-08-06T00:56:51;17.75;;;15.85;;
40951;SDS011;26682;51.660;19.338;2023-08-06T00:59:33;19.00;;;15.48;;
40951;SDS011;26682;51.660;19.338;2023-08-06T01:02:16;19.75;;;15.02;;
40951;SDS011;26682;51.660;19.338;2023-08-06T01:04:59;17.15;;;14.90;;
40951;SDS011;26682;51.660;19.338;2023-08-06T01:13:48;16.65;;;13.82;;
40951;SDS011;26682;51.660;19.338;2023-08-06T01:16:36;15.30;;;13.77;;
40951;SDS011;26682;51.660;19.338;2023-08-06T01:19:21;15.35;;;13.75;;
40951;SDS011;26682;51.660;19.338;2023-08-06T01:22:04;15.63;;;12.98;;
40951;SDS011;26682;51.660;19.338;2023-08-06T01:24:47;12.50;;;11.25;;
40951;SDS011;26682;51.660;19.338;2023-08-06T01:27:33;13.55;;;11.95;;
40951;SDS011;26682;51.660;19.338;2023-08-06T01:30:25;12.40;;;11.10;;
40951;SDS011;26682;51.660;19.338;2023-08-06T01:33:13;10.32;;;9.25;;
40951;SDS011;26682;51.660;19.338;2023-08-06T01:35:59;10.05;;;9.07;;
40951;SDS011;26682;51.660;19.338;2023-08-06T01:38:44;10.05;;;9.05;;
40951;SDS011;26682;51.660;19.338;2023-08-06T01:41:26;10.13;;;9.13;;
40951;SDS011;26682;51.660;19.338;2023-08-06T01:44:09;11.52;;;9.38;;
40951;SDS011;26682;51.660;19.338;2023-08-06T01:46:51;10.20;;;9.20;;
40951;SDS011;26682;51.660;19.338;2023-08-06T01:49:33;10.25;;;9.23;;
40951;SDS011;26682;51.660;19.338;2023-08-06T01:52:16;10.73;;;9.73;;
40951;SDS011;26682;51.660;19.338;2023-08-06T01:54:58;10.73;;;9.60;;
40951;SDS011;26682;51.660;19.338;2023-08-06T01:57:40;11.40;;;10.30;;
40951;SDS011;26682;51.660;19.338;2023-08-06T02:00:23;13.00;;;11.68;;
40951;SDS011;26682;51.660;19.338;2023-08-06T02:03:05;15.75;;;13.00;;
40951;SDS011;26682;51.660;19.338;2023-08-06T02:05:48;20.27;;;13.20;;
40951;SDS011;26682;51.660;19.338;2023-08-06T02:08:30;15.90;;;13.98;;
40951;SDS011;26682;51.660;19.338;2023-08-06T02:11:13;16.48;;;13.60;;
40951;SDS011;26682;51.660;19.338;2023-08-06T02:13:56;15.90;;;14.00;;
40951;SDS011;26682;51.660;19.338;2023-08-06T02:16:38;16.85;;;13.40;;
40951;SDS011;26682;51.660;19.338;2023-08-06T02:19:20;17.33;;;14.00;;
40951;SDS011;26682;51.660;19.338;2023-08-06T02:22:03;20.35;;;15.02;;
40951;SDS011;26682;51.660;19.338;2023-08-06T02:24:45;16.50;;;14.10;;
40951;SDS011;26682;51.660;19.338;2023-08-06T02:27:28;17.38;;;14.38;;
40951;SDS011;26682;51.660;19.338;2023-08-06T02:30:10;18.15;;;15.43;;
40951;SDS011;26682;51.660;19.338;2023-08-06T02:32:53;19.40;;;15.38;;
40951;SDS011;26682;51.660;19.338;2023-08-06T02:35:35;18.92;;;15.10;;
40951;SDS011;26682;51.660;19.338;2023-08-06T02:38:18;16.95;;;14.52;;
40951;SDS011;26682;51.660;19.338;2023-08-06T02:41:03;16.60;;;14.63;;
40951;SDS011;26682;51.660;19.338;2023-08-06T02:43:46;15.68;;;14.07;;
40951;SDS011;26682;51.660;19.338;2023-08-06T02:46:28;15.93;;;13.88;;
40951;SDS011;26682;51.660;19.338;2023-08-06T02:49:11;16.00;;;13.93;;
40951;SDS011;26682;51.660;19.338;2023-08-06T02:51:53;15.90;;;14.30;;
40951;SDS011;26682;51.660;19.338;2023-08-06T02:54:36;15.75;;;13.98;;
40951;SDS011;26682;51.660;19.338;2023-08-06T02:57:18;16.50;;;14.80;;
40951;SDS011;26682;51.660;19.338;2023-08-06T03:00:03;15.13;;;13.52;;
40951;SDS011;26682;51.660;19.338;2023-08-06T03:02:46;16.88;;;15.00;;
40951;SDS011;26682;51.660;19.338;2023-08-06T03:05:50;16.42;;;14.50;;
40951;SDS011;26682;51.660;19.338;2023-08-06T03:08:45;17.58;;;14.75;;
40951;SDS011;26682;51.660;19.338;2023-08-06T03:11:27;17.05;;;14.65;;
40951;SDS011;26682;51.660;19.338;2023-08-06T03:14:15;16.92;;;14.00;;
40951;SDS011;26682;51.660;19.338;2023-08-06T03:16:59;14.70;;;13.07;;
40951;SDS011;26682;51.660;19.338;2023-08-06T03:19:41;14.65;;;12.55;;
40951;SDS011;26682;51.660;19.338;2023-08-06T03:22:25;14.65;;;13.05;;
40951;SDS011;26682;51.660;19.338;2023-08-06T03:25:08;14.90;;;12.60;;
40951;SDS011;26682;51.660;19.338;2023-08-06T03:27:52;13.48;;;12.07;;
40951;SDS011;26682;51.660;19.338;2023-08-06T03:30:34;15.18;;;12.27;;
40951;SDS011;26682;51.660;19.338;2023-08-06T03:33:17;13.43;;;11.25;;
40951;SDS011;26682;51.660;19.338;2023-08-06T03:36:00;12.90;;;11.60;;
40951;SDS011;26682;51.660;19.338;2023-08-06T03:38:43;14.90;;;11.48;;
40951;SDS011;26682;51.660;19.338;2023-08-06T03:41:28;10.18;;;8.68;;
40951;SDS011;26682;51.660;19.338;2023-08-06T03:44:11;12.57;;;11.35;;
40951;SDS011;26682;51.660;19.338;2023-08-06T03:46:55;13.52;;;12.18;;
40951;SDS011;26682;51.660;19.338;2023-08-06T03:49:37;13.55;;;12.15;;
40951;SDS011;26682;51.660;19.338;2023-08-06T03:52:22;13.55;;;12.13;;
40951;SDS011;26682;51.660;19.338;2023-08-06T03:55:04;12.38;;;10.73;;
40951;SDS011;26682;51.660;19.338;2023-08-06T03:57:47;11.00;;;9.90;;
40951;SDS011;26682;51.660;19.338;2023-08-06T04:00:30;10.95;;;9.65;;
40951;SDS011;26682;51.660;19.338;2023-08-06T04:03:12;11.02;;;9.98;;
40951;SDS011;26682;51.660;19.338;2023-08-06T04:05:56;11.13;;;9.82;;
40951;SDS011;26682;51.660;19.338;2023-08-06T04:08:39;12.90;;;9.82;;
40951;SDS011;26682;51.660;19.338;2023-08-06T04:11:22;11.05;;;9.95;;
40951;SDS011;26682;51.660;19.338;2023-08-06T04:14:04;10.77;;;9.77;;
40951;SDS011;26682;51.660;19.338;2023-08-06T04:16:46;10.90;;;9.80;;
40951;SDS011;26682;51.660;19.338;2023-08-06T04:19:29;11.55;;;9.93;;
40951;SDS011;26682;51.660;19.338;2023-08-06T04:22:11;12.15;;;9.82;;
40951;SDS011;26682;51.660;19.338;2023-08-06T04:24:53;11.45;;;10.13;;
40951;SDS011;26682;51.660;19.338;2023-08-06T04:27:36;11.07;;;9.98;;
40951;SDS011;26682;51.660;19.338;2023-08-06T04:30:23;10.95;;;9.85;;
40951;SDS011;26682;51.660;19.338;2023-08-06T04:33:06;11.68;;;10.48;;
40951;SDS011;26682;51.660;19.338;2023-08-06T04:35:53;12.27;;;10.07;;
40951;SDS011;26682;51.660;19.338;2023-08-06T04:38:38;12.57;;;10.93;;
40951;SDS011;26682;51.660;19.338;2023-08-06T04:41:23;13.82;;;11.35;;
40951;SDS011;26682;51.660;19.338;2023-08-06T04:44:05;16.08;;;12.30;;
40951;SDS011;26682;51.660;19.338;2023-08-06T04:46:47;16.75;;;11.75;;
40951;SDS011;26682;51.660;19.338;2023-08-06T04:49:30;15.45;;;12.13;;
40951;SDS011;26682;51.660;19.338;2023-08-06T04:52:13;20.60;;;12.95;;
40951;SDS011;26682;51.660;19.338;2023-08-06T04:54:55;16.60;;;12.90;;
40951;SDS011;26682;51.660;19.338;2023-08-06T04:57:37;18.20;;;13.52;;
40951;SDS011;26682;51.660;19.338;2023-08-06T05:00:20;14.40;;;12.07;;
40951;SDS011;26682;51.660;19.338;2023-08-06T05:03:02;16.10;;;13.40;;
40951;SDS011;26682;51.660;19.338;2023-08-06T05:05:45;19.35;;;13.40;;
40951;SDS011;26682;51.660;19.338;2023-08-06T05:08:28;18.50;;;12.98;;
40951;SDS011;26682;51.660;19.338;2023-08-06T05:11:10;19.98;;;13.93;;
40951;SDS011;26682;51.660;19.338;2023-08-06T05:13:53;31.55;;;13.20;;
40951;SDS011;26682;51.660;19.338;2023-08-06T05:16:35;19.25;;;13.95;;
40951;SDS011;26682;51.660;19.338;2023-08-06T05:19:18;22.60;;;12.65;;
40951;SDS011;26682;51.660;19.338;2023-08-06T05:22:00;19.00;;;13.63;;
40951;SDS011;26682;51.660;19.338;2023-08-06T05:24:43;23.77;;;13.68;;
40951;SDS011;26682;51.660;19.338;2023-08-06T05:27:26;30.52;;;13.73;;
40951;SDS011;26682;51.660;19.338;2023-08-06T05:30:08;20.63;;;13.23;;
40951;SDS011;26682;51.660;19.338;2023-08-06T05:32:52;18.70;;;13.07;;
40951;SDS011;26682;51.660;19.338;2023-08-06T05:35:34;14.23;;;11.38;;
40951;SDS011;26682;51.660;19.338;2023-08-06T05:38:16;15.68;;;12.23;;
40951;SDS011;26682;51.660;19.338;2023-08-06T05:40:59;20.23;;;12.15;;
40951;SDS011;26682;51.660;19.338;2023-08-06T05:43:41;15.10;;;12.20;;
40951;SDS011;26682;51.660;19.338;2023-08-06T05:46:24;15.88;;;12.10;;
40951;SDS011;26682;51.660;19.338;2023-08-06T05:49:06;13.93;;;11.77;;
40951;SDS011;26682;51.660;19.338;2023-08-06T05:51:48;18.02;;;12.10;;
40951;SDS011;26682;51.660;19.338;2023-08-06T05:54:32;13.65;;;11.23;;
40951;SDS011;26682;51.660;19.338;2023-08-06T05:57:14;15.20;;;11.48;;
40951;SDS011;26682;51.660;19.338;2023-08-06T05:59:57;16.42;;;11.82;;
40951;SDS011;26682;51.660;19.338;2023-08-06T06:02:39;13.32;;;11.15;;
40951;SDS011;26682;51.660;19.338;2023-08-06T06:05:22;16.45;;;11.48;;
40951;SDS011;26682;51.660;19.338;2023-08-06T06:08:04;15.70;;;11.20;;
40951;SDS011;26682;51.660;19.338;2023-08-06T06:10:47;15.13;;;12.07;;
40951;SDS011;26682;51.660;19.338;2023-08-06T06:13:29;20.23;;;11.52;;
40951;SDS011;26682;51.660;19.338;2023-08-06T06:16:11;18.17;;;11.30;;
40951;SDS011;26682;51.660;19.338;2023-08-06T06:18:54;16.92;;;11.38;;
40951;SDS011;26682;51.660;19.338;2023-08-06T06:21:36;14.07;;;10.57;;
40951;SDS011;26682;51.660;19.338;2023-08-06T06:24:20;13.30;;;10.90;;
40951;SDS011;26682;51.660;19.338;2023-08-06T06:27:05;12.30;;;11.00;;
40951;SDS011;26682;51.660;19.338;2023-08-06T06:29:47;13.32;;;10.88;;
40951;SDS011;26682;51.660;19.338;2023-08-06T06:32:30;14.75;;;10.73;;
40951;SDS011;26682;51.660;19.338;2023-08-06T06:35:12;12.32;;;10.65;;
40951;SDS011;26682;51.660;19.338;2023-08-06T06:37:55;11.52;;;10.15;;
40951;SDS011;26682;51.660;19.338;2023-08-06T06:40:37;10.15;;;8.60;;
40951;SDS011;26682;51.660;19.338;2023-08-06T06:43:19;11.27;;;9.43;;
40951;SDS011;26682;51.660;19.338;2023-08-06T06:46:02;11.85;;;10.40;;
40951;SDS011;26682;51.660;19.338;2023-08-06T06:48:45;10.18;;;9.00;;
40951;SDS011;26682;51.660;19.338;2023-08-06T06:51:27;10.95;;;9.23;;
40951;SDS011;26682;51.660;19.338;2023-08-06T06:54:10;11.05;;;9.32;;
40951;SDS011;26682;51.660;19.338;2023-08-06T06:56:53;10.90;;;9.18;;
40951;SDS011;26682;51.660;19.338;2023-08-06T06:59:35;9.68;;;8.52;;
40951;SDS011;26682;51.660;19.338;2023-08-06T07:02:17;9.25;;;8.25;;
40951;SDS011;26682;51.660;19.338;2023-08-06T07:05:00;9.93;;;8.93;;
40951;SDS011;26682;51.660;19.338;2023-08-06T07:07:42;11.07;;;9.85;;
40951;SDS011;26682;51.660;19.338;2023-08-06T07:10:25;11.68;;;10.13;;
40951;SDS011;26682;51.660;19.338;2023-08-06T07:13:08;13.95;;;11.00;;
40951;SDS011;26682;51.660;19.338;2023-08-06T07:15:50;13.40;;;12.00;;
40951;SDS011;26682;51.660;19.338;2023-08-06T07:18:32;13.40;;;12.02;;
40951;SDS011;26682;51.660;19.338;2023-08-06T07:21:15;14.85;;;13.13;;
40951;SDS011;26682;51.660;19.338;2023-08-06T07:23:57;15.05;;;12.63;;
40951;SDS011;26682;51.660;19.338;2023-08-06T07:26:41;18.33;;;14.93;;
40951;SDS011;26682;51.660;19.338;2023-08-06T07:29:23;17.67;;;14.60;;
40951;SDS011;26682;51.660;19.338;2023-08-06T07:32:06;16.17;;;14.48;;
40951;SDS011;26682;51.660;19.338;2023-08-06T07:34:49;15.55;;;13.95;;
40951;SDS011;26682;51.660;19.338;2023-08-06T07:37:31;16.75;;;15.00;;
40951;SDS011;26682;51.660;19.338;2023-08-06T07:40:13;17.30;;;14.85;;
40951;SDS011;26682;51.660;19.338;2023-08-06T07:42:56;16.02;;;13.82;;
40951;SDS011;26682;51.660;19.338;2023-08-06T07:45:38;16.45;;;14.38;;
40951;SDS011;26682;51.660;19.338;2023-08-06T07:48:21;14.20;;;12.70;;
40951;SDS011;26682;51.660;19.338;2023-08-06T07:51:03;14.90;;;13.23;;
40951;SDS011;26682;51.660;19.338;2023-08-06T07:53:46;13.10;;;11.70;;
40951;SDS011;26682;51.660;19.338;2023-08-06T07:56:29;13.43;;;12.00;;
40951;SDS011;26682;51.660;19.338;2023-08-06T07:59:11;13.52;;;11.45;;
40951;SDS011;26682;51.660;19.338;2023-08-06T08:01:53;11.70;;;10.43;;
40951;SDS011;26682;51.660;19.338;2023-08-06T08:04:36;12.65;;;10.80;;
40951;SDS011;26682;51.660;19.338;2023-08-06T08:07:19;12.35;;;11.05;;
40951;SDS011;26682;51.660;19.338;2023-08-06T08:10:01;12.25;;;11.05;;
40951;SDS011;26682;51.660;19.338;2023-08-06T08:12:44;15.45;;;12.00;;
40951;SDS011;26682;51.660;19.338;2023-08-06T08:15:30;14.55;;;11.93;;
40951;SDS011;26682;51.660;19.338;2023-08-06T08:18:13;14.80;;;12.73;;
40951;SDS011;26682;51.660;19.338;2023-08-06T08:20:55;14.38;;;12.88;;
40951;SDS011;26682;51.660;19.338;2023-08-06T08:23:37;17.08;;;14.00;;
40951;SDS011;26682;51.660;19.338;2023-08-06T08:26:21;15.25;;;13.05;;
40951;SDS011;26682;51.660;19.338;2023-08-06T08:29:03;15.30;;;13.30;;
40951;SDS011;26682;51.660;19.338;2023-08-06T08:31:46;15.13;;;12.52;;
40951;SDS011;26682;51.660;19.338;2023-08-06T08:34:30;14.05;;;12.57;;
40951;SDS011;26682;51.660;19.338;2023-08-06T08:37:13;15.10;;;12.27;;
40951;SDS011;26682;51.660;19.338;2023-08-06T08:39:55;16.27;;;12.88;;
40951;SDS011;26682;51.660;19.338;2023-08-06T08:42:38;14.23;;;12.25;;
40951;SDS011;26682;51.660;19.338;2023-08-06T08:45:20;15.00;;;12.00;;
40951;SDS011;26682;51.660;19.338;2023-08-06T08:48:08;18.58;;;12.88;;
40951;SDS011;26682;51.660;19.338;2023-08-06T08:50:53;16.20;;;13.13;;
40951;SDS011;26682;51.660;19.338;2023-08-06T08:53:38;16.00;;;12.93;;
40951;SDS011;26682;51.660;19.338;2023-08-06T08:56:21;15.27;;;12.85;;
40951;SDS011;26682;51.660;19.338;2023-08-06T08:59:04;17.25;;;12.40;;
40951;SDS011;26682;51.660;19.338;2023-08-06T09:01:46;13.95;;;11.68;;
40951;SDS011;26682;51.660;19.338;2023-08-06T09:04:34;11.57;;;10.23;;
40951;SDS011;26682;51.660;19.338;2023-08-06T09:07:18;12.27;;;10.38;;
40951;SDS011;26682;51.660;19.338;2023-08-06T09:10:02;11.25;;;9.38;;
40951;SDS011;26682;51.660;19.338;2023-08-06T09:12:48;12.35;;;9.45;;
40951;SDS011;26682;51.660;19.338;2023-08-06T09:15:32;10.60;;;9.07;;
40951;SDS011;26682;51.660;19.338;2023-08-06T09:18:15;9.48;;;8.57;;
40951;SDS011;26682;51.660;19.338;2023-08-06T09:21:13;9.25;;;8.13;;
40951;SDS011;26682;51.660;19.338;2023-08-06T09:23:58;9.27;;;8.35;;
40951;SDS011;26682;51.660;19.338;2023-08-06T09:26:42;11.82;;;9.20;;
40951;SDS011;26682;51.660;19.338;2023-08-06T09:29:27;13.15;;;9.48;;
40951;SDS011;26682;51.660;19.338;2023-08-06T09:32:14;12.23;;;9.02;;
40951;SDS011;26682;51.660;19.338;2023-08-06T09:34:56;10.63;;;9.23;;
40951;SDS011;26682;51.660;19.338;2023-08-06T09:37:39;10.98;;;9.88;;
40951;SDS011;26682;51.660;19.338;2023-08-06T09:40:25;10.95;;;9.82;;
40951;SDS011;26682;51.660;19.338;2023-08-06T09:43:13;10.98;;;9.88;;
40951;SDS011;26682;51.660;19.338;2023-08-06T09:45:56;12.10;;;10.90;;
40951;SDS011;26682;51.660;19.338;2023-08-06T09:48:40;12.50;;;10.82;;
40951;SDS011;26682;51.660;19.338;2023-08-06T09:51:23;13.05;;;11.27;;
40951;SDS011;26682;51.660;19.338;2023-08-06T09:54:05;13.80;;;11.63;;
40951;SDS011;26682;51.660;19.338;2023-08-06T09:57:07;13.40;;;12.10;;
40951;SDS011;26682;51.660;19.338;2023-08-06T09:59:50;14.13;;;12.63;;
40951;SDS011;26682;51.660;19.338;2023-08-06T10:02:34;14.27;;;12.07;;
40951;SDS011;26682;51.660;19.338;2023-08-06T10:05:19;16.05;;;12.55;;
40951;SDS011;26682;51.660;19.338;2023-08-06T10:08:03;15.00;;;13.38;;
40951;SDS011;26682;51.660;19.338;2023-08-06T10:10:48;16.70;;;14.33;;
40951;SDS011;26682;51.660;19.338;2023-08-06T10:13:34;19.35;;;14.07;;
40951;SDS011;26682;51.660;19.338;2023-08-06T10:16:17;20.52;;;15.45;;
40951;SDS011;26682;51.660;19.338;2023-08-06T10:19:01;18.33;;;14.90;;
40951;SDS011;26682;51.660;19.338;2023-08-06T10:22:32;18.17;;;14.45;;
40951;SDS011;26682;51.660;19.338;2023-08-06T10:24:56;18.65;;;15.65;;
40951;SDS011;26682;51.660;19.338;2023-08-06T10:27:47;17.65;;;15.07;;
40951;SDS011;26682;51.660;19.338;2023-08-06T10:30:42;19.63;;;15.30;;
40951;SDS011;26682;51.660;19.338;2023-08-06T10:33:30;21.13;;;15.68;;
40951;SDS011;26682;51.660;19.338;2023-08-06T10:36:23;19.27;;;16.73;;
40951;SDS011;26682;51.660;19.338;2023-08-06T10:39:08;20.48;;;17.77;;
40951;SDS011;26682;51.660;19.338;2023-08-06T10:42:21;21.40;;;18.40;;
40951;SDS011;26682;51.660;19.338;2023-08-06T10:45:10;22.70;;;18.67;;
40951;SDS011;26682;51.660;19.338;2023-08-06T10:48:00;24.35;;;18.92;;
40951;SDS011;26682;51.660;19.338;2023-08-06T10:50:42;22.52;;;18.92;;
40951;SDS011;26682;51.660;19.338;2023-08-06T10:53:25;21.98;;;19.17;;
40951;SDS011;26682;51.660;19.338;2023-08-06T10:56:14;24.90;;;18.67;;
40951;SDS011;26682;51.660;19.338;2023-08-06T10:58:58;21.50;;;18.55;;
40951;SDS011;26682;51.660;19.338;2023-08-06T11:01:41;21.55;;;18.27;;
40951;SDS011;26682;51.660;19.338;2023-08-06T11:04:23;27.25;;;19.55;;
40951;SDS011;26682;51.660;19.338;2023-08-06T11:07:07;25.50;;;19.50;;
40951;SDS011;26682;51.660;19.338;2023-08-06T11:09:50;25.27;;;20.38;;
40951;SDS011;26682;51.660;19.338;2023-08-06T11:12:34;24.23;;;21.63;;
40951;SDS011;26682;51.660;19.338;2023-08-06T11:15:20;22.42;;;20.00;;
40951;SDS011;26682;51.660;19.338;2023-08-06T11:18:02;24.52;;;20.30;;
40951;SDS011;26682;51.660;19.338;2023-08-06T11:20:45;23.75;;;20.13;;
40951;SDS011;26682;51.660;19.338;2023-08-06T11:23:28;20.77;;;18.58;;
40951;SDS011;26682;51.660;19.338;2023-08-06T11:26:11;11.00;;;9.55;;
40951;SDS011;26682;51.660;19.338;2023-08-06T11:28:55;5.85;;;3.08;;
40951;SDS011;26682;51.660;19.338;2023-08-06T11:31:38;3.60;;;1.23;;
40951;SDS011;26682;51.660;19.338;2023-08-06T11:34:20;1.08;;;0.70;;
40951;SDS011;26682;51.660;19.338;2023-08-06T11:37:03;2.47;;;0.88;;
40951;SDS011;26682;51.660;19.338;2023-08-06T11:39:49;34.42;;;2.95;;
40951;SDS011;26682;51.660;19.338;2023-08-06T11:42:31;13.13;;;2.25;;
40951;SDS011;26682;51.660;19.338;2023-08-06T11:45:14;4.63;;;1.17;;
40951;SDS011;26682;51.660;19.338;2023-08-06T11:47:57;1.98;;;1.10;;
40951;SDS011;26682;51.660;19.338;2023-08-06T11:50:40;2.03;;;0.80;;
40951;SDS011;26682;51.660;19.338;2023-08-06T11:53:26;2.95;;;0.90;;
40951;SDS011;26682;51.660;19.338;2023-08-06T11:56:11;1.83;;;0.70;;
40951;SDS011;26682;51.660;19.338;2023-08-06T11:58:54;1.35;;;1.00;;
40951;SDS011;26682;51.660;19.338;2023-08-06T12:01:38;4.05;;;0.75;;
40951;SDS011;26682;51.660;19.338;2023-08-06T12:04:20;0.82;;;0.80;;
40951;SDS011;26682;51.660;19.338;2023-08-06T12:07:06;0.75;;;0.52;;
40951;SDS011;26682;51.660;19.338;2023-08-06T12:09:49;1.20;;;0.70;;
40951;SDS011;26682;51.660;19.338;2023-08-06T12:12:32;1.65;;;0.52;;
40951;SDS011;26682;51.660;19.338;2023-08-06T12:15:14;2.55;;;0.70;;
40951;SDS011;26682;51.660;19.338;2023-08-06T12:17:56;0.77;;;0.73;;
40951;SDS011;26682;51.660;19.338;2023-08-06T12:20:39;0.82;;;0.80;;
40951;SDS011;26682;51.660;19.338;2023-08-06T12:23:21;0.70;;;0.65;;
40951;SDS011;26682;51.660;19.338;2023-08-06T12:26:03;0.80;;;0.80;;
40951;SDS011;26682;51.660;19.338;2023-08-06T12:28:46;1.75;;;0.57;;
40951;SDS011;26682;51.660;19.338;2023-08-06T12:31:29;1.02;;;0.77;;
40951;SDS011;26682;51.660;19.338;2023-08-06T12:34:11;1.60;;;0.60;;
40951;SDS011;26682;51.660;19.338;2023-08-06T12:36:54;1.48;;;0.85;;
40951;SDS011;26682;51.660;19.338;2023-08-06T12:39:36;1.08;;;0.70;;
40951;SDS011;26682;51.660;19.338;2023-08-06T12:42:19;2.55;;;0.90;;
40951;SDS011;26682;51.660;19.338;2023-08-06T12:45:02;1.15;;;0.85;;
40951;SDS011;26682;51.660;19.338;2023-08-06T12:47:44;1.13;;;0.73;;
40951;SDS011;26682;51.660;19.338;2023-08-06T12:50:27;0.80;;;0.80;;
40951;SDS011;26682;51.660;19.338;2023-08-06T12:53:10;1.05;;;0.95;;
40951;SDS011;26682;51.660;19.338;2023-08-06T12:55:52;2.70;;;0.82;;
40951;SDS011;26682;51.660;19.338;2023-08-06T12:58:35;0.80;;;0.80;;
40951;SDS011;26682;51.660;19.338;2023-08-06T13:01:18;1.23;;;0.88;;
40951;SDS011;26682;51.660;19.338;2023-08-06T13:04:00;1.95;;;1.00;;
40951;SDS011;26682;51.660;19.338;2023-08-06T13:07:01;1.30;;;1.00;;
40951;SDS011;26682;51.660;19.338;2023-08-06T13:09:44;1.10;;;1.00;;
40951;SDS011;26682;51.660;19.338;2023-08-06T13:12:26;4.65;;;3.30;;
40951;SDS011;26682;51.660;19.338;2023-08-06T13:15:08;3.45;;;1.80;;
40951;SDS011;26682;51.660;19.338;2023-08-06T13:17:52;4.22;;;1.50;;
40951;SDS011;26682;51.660;19.338;2023-08-06T13:20:34;2.30;;;1.85;;
40951;SDS011;26682;51.660;19.338;2023-08-06T13:23:20;3.60;;;2.83;;
40951;SDS011;26682;51.660;19.338;2023-08-06T13:26:02;5.80;;;5.05;;
40951;SDS011;26682;51.660;19.338;2023-08-06T13:28:45;8.80;;;7.65;;
40951;SDS011;26682;51.660;19.338;2023-08-06T13:31:27;10.30;;;9.45;;
40951;SDS011;26682;51.660;19.338;2023-08-06T13:34:10;5.43;;;5.03;;
40951;SDS011;26682;51.660;19.338;2023-08-06T13:36:53;3.30;;;3.00;;
40951;SDS011;26682;51.660;19.338;2023-08-06T13:39:36;2.45;;;2.28;;
40951;SDS011;26682;51.660;19.338;2023-08-06T13:42:18;3.47;;;3.17;;
40951;SDS011;26682;51.660;19.338;2023-08-06T13:45:01;5.97;;;2.65;;
40951;SDS011;26682;51.660;19.338;2023-08-06T13:47:45;12.07;;;11.18;;
40951;SDS011;26682;51.660;19.338;2023-08-06T13:50:28;4.18;;;2.20;;
40951;SDS011;26682;51.660;19.338;2023-08-06T13:53:10;2.80;;;2.58;;
40951;SDS011;26682;51.660;19.338;2023-08-06T13:55:53;7.20;;;6.60;;
40951;SDS011;26682;51.660;19.338;2023-08-06T13:58:35;3.30;;;3.08;;
40951;SDS011;26682;51.660;19.338;2023-08-06T14:01:18;7.22;;;6.57;;
40951;SDS011;26682;51.660;19.338;2023-08-06T14:04:00;2.83;;;2.60;;
40951;SDS011;26682;51.660;19.338;2023-08-06T14:06:43;6.28;;;5.75;;
40951;SDS011;26682;51.660;19.338;2023-08-06T14:09:26;2.78;;;2.25;;
40951;SDS011;26682;51.660;19.338;2023-08-06T14:12:09;2.80;;;2.60;;
40951;SDS011;26682;51.660;19.338;2023-08-06T14:14:51;13.05;;;12.07;;
40951;SDS011;26682;51.660;19.338;2023-08-06T14:17:34;9.98;;;9.27;;
40951;SDS011;26682;51.660;19.338;2023-08-06T14:20:16;1.83;;;1.73;;
40951;SDS011;26682;51.660;19.338;2023-08-06T14:22:59;7.82;;;7.20;;
40951;SDS011;26682;51.660;19.338;2023-08-06T14:25:42;2.97;;;2.42;;
40951;SDS011;26682;51.660;19.338;2023-08-06T14:28:25;3.67;;;3.10;;
40951;SDS011;26682;51.660;19.338;2023-08-06T14:31:08;6.97;;;6.47;;
40951;SDS011;26682;51.660;19.338;2023-08-06T14:33:51;2.67;;;2.58;;
40951;SDS011;26682;51.660;19.338;2023-08-06T14:36:33;5.47;;;4.55;;
40951;SDS011;26682;51.660;19.338;2023-08-06T14:39:16;7.38;;;6.88;;
40951;SDS011;26682;51.660;19.338;2023-08-06T14:42:00;2.17;;;1.67;;
40951;SDS011;26682;51.660;19.338;2023-08-06T14:44:43;1.88;;;1.00;;
40951;SDS011;26682;51.660;19.338;2023-08-06T14:47:25;3.00;;;2.80;;
40951;SDS011;26682;51.660;19.338;2023-08-06T14:50:08;3.10;;;2.90;;
40951;SDS011;26682;51.660;19.338;2023-08-06T14:52:50;4.93;;;4.38;;
40951;SDS011;26682;51.660;19.338;2023-08-06T14:55:33;1.30;;;1.20;;
40951;SDS011;26682;51.660;19.338;2023-08-06T14:58:16;4.57;;;4.22;;
40951;SDS011;26682;51.660;19.338;2023-08-06T15:00:58;4.80;;;4.40;;
40951;SDS011;26682;51.660;19.338;2023-08-06T15:03:41;8.52;;;4.68;;
40951;SDS011;26682;51.660;19.338;2023-08-06T15:06:23;4.28;;;3.97;;
40951;SDS011;26682;51.660;19.338;2023-08-06T15:09:06;4.68;;;4.18;;
40951;SDS011;26682;51.660;19.338;2023-08-06T15:11:49;6.57;;;6.05;;
40951;SDS011;26682;51.660;19.338;2023-08-06T15:14:31;7.50;;;7.03;;
40951;SDS011;26682;51.660;19.338;2023-08-06T15:17:14;3.17;;;2.70;;
40951;SDS011;26682;51.660;19.338;2023-08-06T15:19:56;2.40;;;2.30;;
40951;SDS011;26682;51.660;19.338;2023-08-06T15:22:40;1.88;;;1.77;;
40951;SDS011;26682;51.660;19.338;2023-08-06T15:25:22;4.85;;;3.03;;
40951;SDS011;26682;51.660;19.338;2023-08-06T15:28:05;2.03;;;0.70;;
40951;SDS011;26682;51.660;19.338;2023-08-06T15:30:48;2.45;;;1.60;;
40951;SDS011;26682;51.660;19.338;2023-08-06T15:33:32;4.85;;;4.50;;
40951;SDS011;26682;51.660;19.338;2023-08-06T15:36:14;4.70;;;4.40;;
40951;SDS011;26682;51.660;19.338;2023-08-06T15:38:57;6.80;;;6.30;;
40951;SDS011;26682;51.660;19.338;2023-08-06T15:41:39;4.32;;;4.03;;
40951;SDS011;26682;51.660;19.338;2023-08-06T15:44:22;4.45;;;4.15;;
40951;SDS011;26682;51.660;19.338;2023-08-06T15:47:05;6.40;;;5.80;;
40951;SDS011;26682;51.660;19.338;2023-08-06T15:49:47;4.15;;;1.80;;
40951;SDS011;26682;51.660;19.338;2023-08-06T15:52:29;3.03;;;2.83;;
40951;SDS011;26682;51.660;19.338;2023-08-06T15:55:12;0.93;;;0.88;;
40951;SDS011;26682;51.660;19.338;2023-08-06T15:57:54;1.63;;;0.60;;
40951;SDS011;26682;51.660;19.338;2023-08-06T16:00:37;0.60;;;0.50;;